createdAt,value
2023-05-12T00:01:14.593Z,61.21
2023-05-12T00:03:42.890Z,61.32
2023-05-12T00:06:11.652Z,61.37
2023-05-12T00:08:39.832Z,61.45
2023-05-12T00:11:08.104Z,61.21
2023-05-12T00:13:36.353Z,61.52
2023-05-12T00:16:05.305Z,61.59
2023-05-12T00:18:33.579Z,61.81
2023-05-12T00:21:01.916Z,61.70
2023-05-12T00:23:30.088Z,61.70
2023-05-12T00:25:58.366Z,61.61
2023-05-12T00:28:26.546Z,61.97
2023-05-12T00:30:54.607Z,62.20
2023-05-12T00:33:23.090Z,62.58
2023-05-12T00:35:51.871Z,62.81
2023-05-12T00:38:20.149Z,62.82
2023-05-12T00:40:48.323Z,62.82
2023-05-12T00:43:16.505Z,62.85
2023-05-12T00:45:44.810Z,62.72
2023-05-12T00:48:13.878Z,62.71
2023-05-12T00:50:42.139Z,62.72
2023-05-12T00:53:10.717Z,63.04
2023-05-12T00:55:38.892Z,63.13
2023-05-12T00:58:08.420Z,63.39
2023-05-12T01:00:37.505Z,63.40
2023-05-12T01:03:06.233Z,63.65
2023-05-12T01:06:00.664Z,63.87
2023-05-12T01:08:29.871Z,63.72
2023-05-12T01:10:58.131Z,63.69
2023-05-12T01:13:27.946Z,63.39
2023-05-12T01:15:56.938Z,63.55
2023-05-12T01:18:27.829Z,63.84
2023-05-12T01:20:57.071Z,63.86
2023-05-12T01:23:29.842Z,63.94
2023-05-12T01:26:08.487Z,64.03
2023-05-12T01:28:38.196Z,64.10
2023-05-12T01:31:08.455Z,63.24
2023-05-12T01:33:40.155Z,63.64
2023-05-12T01:36:09.041Z,62.60
2023-05-12T01:38:37.929Z,62.80
2023-05-12T01:41:06.515Z,63.01
2023-05-12T01:43:34.986Z,63.23
2023-05-12T01:46:04.337Z,63.62
2023-05-12T01:48:32.764Z,63.72
2023-05-12T01:51:02.063Z,63.92
2023-05-12T01:53:30.443Z,63.66
2023-05-12T01:55:58.614Z,63.45
2023-05-12T01:58:28.115Z,63.22
2023-05-12T02:00:56.488Z,63.36
2023-05-12T02:03:25.373Z,63.53
2023-05-12T02:05:53.655Z,63.84
2023-05-12T02:08:21.933Z,64.10
2023-05-12T02:10:50.106Z,64.44
2023-05-12T02:13:18.586Z,64.61
2023-05-12T02:15:46.653Z,64.73
2023-05-12T02:18:14.923Z,64.74
2023-05-12T02:20:43.724Z,64.83
2023-05-12T02:23:11.885Z,65.01
2023-05-12T02:25:41.084Z,65.14
2023-05-12T02:28:12.024Z,65.40
2023-05-12T02:30:46.235Z,65.39
2023-05-12T02:33:16.146Z,65.60
2023-05-12T02:35:45.035Z,65.90
2023-05-12T02:38:13.822Z,66.19
2023-05-12T02:40:42.516Z,66.45
2023-05-12T02:43:10.682Z,66.64
2023-05-12T02:45:39.385Z,67.00
2023-05-12T02:48:07.859Z,67.10
2023-05-12T02:50:36.015Z,67.22
2023-05-12T02:53:04.216Z,67.23
2023-05-12T02:55:32.568Z,67.20
2023-05-12T02:58:01.254Z,67.28
2023-05-12T03:00:29.642Z,67.23
2023-05-12T03:02:58.152Z,67.10
2023-05-12T03:05:26.596Z,67.13
2023-05-12T03:07:55.172Z,67.27
2023-05-12T03:10:23.633Z,67.28
2023-05-12T03:12:52.024Z,67.34
2023-05-12T03:15:20.203Z,67.60
2023-05-12T03:17:48.647Z,67.79
2023-05-12T03:20:17.629Z,67.94
2023-05-12T03:22:46.560Z,68.15
2023-05-12T03:25:14.832Z,68.05
2023-05-12T03:27:43.564Z,68.31
2023-05-12T03:30:12.606Z,68.36
2023-05-12T03:32:40.850Z,68.38
2023-05-12T03:35:10.817Z,68.41
2023-05-12T03:37:39.278Z,68.50
2023-05-12T03:40:08.782Z,68.50
2023-05-12T03:42:36.952Z,68.61
2023-05-12T03:45:07.255Z,68.55
2023-05-12T03:47:36.357Z,68.71
2023-05-12T03:50:05.371Z,68.91
2023-05-12T03:52:33.946Z,69.16
2023-05-12T03:55:02.729Z,69.27
2023-05-12T03:57:31.106Z,69.14
2023-05-12T03:59:59.278Z,69.14
2023-05-12T04:02:27.606Z,69.10
2023-05-12T04:04:56.139Z,69.07
2023-05-12T04:07:24.307Z,69.13
2023-05-12T04:09:52.485Z,69.29
2023-05-12T04:12:20.653Z,69.47
2023-05-12T04:14:48.745Z,69.16
2023-05-12T04:17:19.321Z,69.31
2023-05-12T04:19:47.527Z,69.13
2023-05-12T04:22:15.803Z,69.49
2023-05-12T04:24:43.986Z,69.43
2023-05-12T04:27:12.395Z,68.69
2023-05-12T04:29:40.657Z,68.03
2023-05-12T04:32:09.237Z,68.80
2023-05-12T04:34:38.094Z,68.37
2023-05-12T04:37:06.687Z,68.22
2023-05-12T04:39:35.541Z,67.37
2023-05-12T04:42:04.665Z,66.82
2023-05-12T04:44:36.622Z,66.10
2023-05-12T04:47:05.313Z,64.66
2023-05-12T04:49:33.586Z,64.04
2023-05-12T04:52:01.855Z,62.77
2023-05-12T04:54:30.004Z,61.71
2023-05-12T04:56:58.507Z,62.08
2023-05-12T04:59:26.793Z,61.94
2023-05-12T05:01:56.383Z,62.14
2023-05-12T05:04:24.869Z,61.58
2023-05-12T05:06:55.706Z,61.47
2023-05-12T05:09:24.488Z,61.06
2023-05-12T05:11:52.966Z,60.12
2023-05-12T05:14:22.664Z,60.32
2023-05-12T05:16:51.086Z,60.41
2023-05-12T05:19:22.587Z,60.18
2023-05-12T05:21:58.661Z,58.15
2023-05-12T05:24:26.937Z,57.48
2023-05-12T05:26:55.813Z,58.13
2023-05-12T05:29:24.102Z,58.43
2023-05-12T05:31:53.179Z,58.05
2023-05-12T05:34:21.510Z,59.02
2023-05-12T05:36:50.286Z,58.31
2023-05-12T05:39:18.532Z,57.62
2023-05-12T05:41:46.703Z,58.19
2023-05-12T05:44:15.903Z,58.81
2023-05-12T05:46:44.106Z,57.77
2023-05-12T05:49:12.755Z,58.36
2023-05-12T05:51:40.928Z,57.23
2023-05-12T05:54:09.304Z,57.09
2023-05-12T05:56:37.478Z,57.31
2023-05-12T05:59:06.566Z,57.72
2023-05-12T06:01:34.790Z,56.47
2023-05-12T06:04:03.060Z,58.46
2023-05-12T06:06:31.698Z,57.72
2023-05-12T06:09:01.304Z,56.83
2023-05-12T06:11:29.688Z,56.85
2023-05-12T06:13:58.057Z,55.79
2023-05-12T06:16:27.832Z,55.16
2023-05-12T06:18:56.008Z,55.73
2023-05-12T06:21:24.315Z,55.92
2023-05-12T06:23:54.945Z,56.11
2023-05-12T06:26:23.118Z,55.79
2023-05-12T06:28:51.297Z,54.75
2023-05-12T06:31:19.490Z,55.28
2023-05-12T06:33:48.874Z,55.44
2023-05-12T06:36:17.050Z,55.42
2023-05-12T06:38:45.210Z,54.88
2023-05-12T06:41:14.529Z,55.07
2023-05-12T06:43:43.708Z,55.52
2023-05-12T06:46:12.513Z,55.35
2023-05-12T06:48:40.666Z,56.28
2023-05-12T06:51:09.551Z,55.80
2023-05-12T06:53:38.348Z,55.99
2023-05-12T06:56:06.478Z,55.91
2023-05-12T06:58:35.018Z,56.35
2023-05-12T07:01:03.299Z,55.91
2023-05-12T07:03:33.540Z,54.05
2023-05-12T07:06:01.885Z,54.06
2023-05-12T07:08:30.245Z,53.08
2023-05-12T07:11:00.983Z,54.14
2023-05-12T07:13:29.250Z,52.31
2023-05-12T07:15:57.395Z,51.44
2023-05-12T07:18:25.838Z,51.59
2023-05-12T07:20:54.187Z,51.34
2023-05-12T07:23:22.550Z,51.82
2023-05-12T07:25:50.724Z,51.72
2023-05-12T07:28:19.107Z,51.46
2023-05-12T07:30:47.479Z,51.31
2023-05-12T07:33:15.661Z,51.75
2023-05-12T07:35:43.924Z,51.41
2023-05-12T07:38:11.994Z,51.28
2023-05-12T07:40:40.265Z,51.55
2023-05-12T07:43:08.441Z,49.53
2023-05-12T07:45:36.846Z,49.27
2023-05-12T07:48:05.071Z,49.56
2023-05-12T07:50:33.268Z,49.39
2023-05-12T07:53:01.451Z,50.30
2023-05-12T07:55:29.822Z,49.88
2023-05-12T07:57:57.986Z,49.97
2023-05-12T08:00:26.267Z,50.10
2023-05-12T08:02:55.730Z,48.60
2023-05-12T08:05:24.045Z,48.33
2023-05-12T08:07:52.524Z,46.87
2023-05-12T08:10:20.701Z,46.37
2023-05-12T08:12:48.865Z,46.91
2023-05-12T08:15:17.048Z,47.22
2023-05-12T08:17:45.259Z,45.92
2023-05-12T08:20:14.125Z,45.50
2023-05-12T08:22:42.375Z,44.78
2023-05-12T08:25:12.600Z,45.19
2023-05-12T08:27:41.596Z,44.99
2023-05-12T08:30:10.585Z,44.73
2023-05-12T08:32:38.913Z,44.35
2023-05-12T08:35:07.634Z,43.84
2023-05-12T08:37:35.922Z,42.73
2023-05-12T08:40:14.005Z,43.87
2023-05-12T08:42:50.586Z,43.47
2023-05-12T08:45:19.144Z,43.75
2023-05-12T08:47:47.872Z,44.34
2023-05-12T08:50:18.155Z,44.16
2023-05-12T08:52:46.663Z,43.74
2023-05-12T08:55:15.149Z,43.77
2023-05-12T08:57:45.885Z,43.37
2023-05-12T09:00:14.866Z,42.30
2023-05-12T09:02:53.061Z,41.93
2023-05-12T09:05:23.548Z,41.17
2023-05-12T09:07:52.376Z,41.55
2023-05-12T09:10:34.527Z,40.41
2023-05-12T09:13:09.126Z,41.17
2023-05-12T09:15:40.144Z,41.37
2023-05-12T09:18:08.343Z,40.81
2023-05-12T09:20:36.993Z,41.09
2023-05-12T09:23:15.817Z,41.33
2023-05-12T09:25:44.303Z,40.94
2023-05-12T09:28:13.209Z,40.76
2023-05-12T09:30:42.849Z,39.53
2023-05-12T09:33:13.116Z,39.38
2023-05-12T09:35:42.557Z,40.05
2023-05-12T09:38:11.928Z,39.23
2023-05-12T09:40:40.399Z,38.11
2023-05-12T09:43:08.879Z,36.89
2023-05-12T09:45:42.480Z,37.06
2023-05-12T09:48:12.003Z,36.72
2023-05-12T09:50:47.935Z,36.67
2023-05-12T09:53:18.383Z,35.58
2023-05-12T09:55:47.794Z,35.65
2023-05-12T09:58:20.852Z,36.20
2023-05-12T10:01:12.862Z,36.20
2023-05-12T10:03:42.995Z,36.40
2023-05-12T10:06:16.513Z,36.37
2023-05-12T10:08:49.045Z,36.19
2023-05-12T10:11:17.766Z,35.40
2023-05-12T10:13:47.052Z,34.34
2023-05-12T10:16:15.962Z,32.66
2023-05-12T10:18:47.117Z,33.00
2023-05-12T10:21:16.284Z,33.35
2023-05-12T10:23:44.857Z,32.23
2023-05-12T10:26:13.864Z,31.89
2023-05-12T10:28:43.133Z,31.17
2023-05-12T10:31:12.075Z,30.57
2023-05-12T10:33:40.312Z,30.06
2023-05-12T10:36:20.991Z,29.70
2023-05-12T10:38:52.017Z,28.40
2023-05-12T10:41:31.128Z,27.34
2023-05-12T10:43:59.641Z,27.26
2023-05-12T10:46:28.543Z,26.78
2023-05-12T10:49:03.529Z,26.20
2023-05-12T10:51:55.792Z,26.14
2023-05-12T10:54:25.621Z,26.46
2023-05-12T10:56:58.853Z,25.62
2023-05-12T10:59:28.088Z,24.69
2023-05-12T11:01:57.897Z,25.24
2023-05-12T11:04:37.743Z,25.24
2023-05-12T11:07:09.792Z,25.05
2023-05-12T11:09:56.855Z,24.61
2023-05-12T11:12:29.216Z,24.53
2023-05-12T11:14:59.816Z,25.08
2023-05-12T11:17:28.234Z,25.93
2023-05-12T11:19:56.995Z,24.71
2023-05-12T11:22:25.473Z,24.43
2023-05-12T11:24:53.816Z,22.05
2023-05-12T11:27:23.706Z,21.03
2023-05-12T11:30:00.696Z,20.10
2023-05-12T11:32:30.566Z,21.38
2023-05-12T11:35:19.002Z,21.32
2023-05-12T11:37:47.370Z,21.79
2023-05-12T11:40:19.528Z,21.52
2023-05-12T11:42:49.237Z,21.19
2023-05-12T11:45:29.018Z,21.39
2023-05-12T11:48:09.005Z,22.15
2023-05-12T11:50:39.764Z,22.96
2023-05-12T11:53:17.392Z,23.41
2023-05-12T11:55:55.975Z,22.26
2023-05-12T11:58:27.002Z,22.09
2023-05-12T12:00:55.392Z,22.04
2023-05-12T12:03:24.986Z,21.77
2023-05-12T12:06:01.510Z,21.94
2023-05-12T12:08:30.163Z,22.18
2023-05-12T12:10:58.329Z,21.58
2023-05-12T12:13:26.705Z,21.99
2023-05-12T12:15:55.414Z,22.93
2023-05-12T12:18:24.215Z,22.74
2023-05-12T12:20:52.450Z,21.77
2023-05-12T12:23:20.625Z,21.47
2023-05-12T12:25:48.694Z,21.11
2023-05-12T12:28:16.873Z,20.53
2023-05-12T12:30:45.038Z,20.45
2023-05-12T12:33:13.304Z,19.43
2023-05-12T12:35:41.686Z,18.68
2023-05-12T12:38:09.859Z,19.01
2023-05-12T12:40:38.430Z,18.65
2023-05-12T12:43:06.717Z,19.34
2023-05-12T12:45:34.898Z,19.38
2023-05-12T12:48:03.236Z,19.03
2023-05-12T12:50:32.474Z,19.24
2023-05-12T12:53:00.629Z,18.87
2023-05-12T12:55:29.217Z,18.36
2023-05-12T12:57:58.199Z,18.68
2023-05-12T13:00:27.092Z,18.60
2023-05-12T13:02:55.938Z,17.58
2023-05-12T13:05:24.067Z,17.74
2023-05-12T13:07:52.533Z,17.70
2023-05-12T13:10:21.325Z,18.62
2023-05-12T13:12:49.496Z,17.95
2023-05-12T13:15:19.640Z,18.45
2023-05-12T13:17:48.064Z,18.65
2023-05-12T13:20:16.888Z,17.74
2023-05-12T13:22:45.765Z,18.21
2023-05-12T13:25:13.838Z,18.29
2023-05-12T13:27:42.006Z,18.09
2023-05-12T13:30:13.380Z,17.69
2023-05-12T13:32:42.196Z,17.84
2023-05-12T13:35:10.726Z,17.81
2023-05-12T13:37:38.891Z,16.72
2023-05-12T13:40:08.026Z,16.31
2023-05-12T13:42:36.475Z,17.32
2023-05-12T13:45:05.706Z,17.14
2023-05-12T13:47:33.869Z,17.61
2023-05-12T13:50:02.258Z,18.24
2023-05-12T13:52:30.585Z,18.26
2023-05-12T13:54:58.908Z,19.08
2023-05-12T13:57:27.343Z,19.92
2023-05-12T13:59:58.079Z,20.53
2023-05-12T14:02:26.506Z,21.15
2023-05-12T14:04:55.495Z,21.31
2023-05-12T14:07:23.716Z,21.97
2023-05-12T14:09:52.089Z,22.13
2023-05-12T14:12:20.389Z,21.92
2023-05-12T14:14:50.305Z,22.13
2023-05-12T14:17:18.860Z,21.61
2023-05-12T14:19:47.146Z,22.08
2023-05-12T14:22:25.327Z,21.27
2023-05-12T14:24:55.990Z,21.51
2023-05-12T14:27:24.558Z,22.32
2023-05-12T14:29:52.802Z,22.81
2023-05-12T14:32:21.112Z,22.69
2023-05-12T14:34:49.596Z,22.02
2023-05-12T14:37:17.758Z,22.46
2023-05-12T14:39:45.932Z,21.63
2023-05-12T14:42:14.308Z,21.32
2023-05-12T14:44:42.578Z,20.95
2023-05-12T14:47:10.758Z,21.25
2023-05-12T14:49:38.932Z,21.39
2023-05-12T14:52:07.109Z,21.34
2023-05-12T14:54:35.274Z,21.84
2023-05-12T14:57:04.258Z,22.18
2023-05-12T14:59:32.765Z,22.72
2023-05-12T15:02:00.944Z,23.12
2023-05-12T15:04:29.099Z,23.67
2023-05-12T15:06:57.262Z,24.40
2023-05-12T15:09:25.433Z,24.72
2023-05-12T15:11:53.718Z,25.02
2023-05-12T15:14:21.883Z,25.71
2023-05-12T15:16:50.101Z,25.87
2023-05-12T15:19:20.685Z,26.02
2023-05-12T15:21:49.062Z,26.07
2023-05-12T15:24:17.242Z,26.50
2023-05-12T15:26:46.120Z,26.33
2023-05-12T15:29:14.500Z,26.80
2023-05-12T15:31:42.713Z,26.41
2023-05-12T15:34:10.971Z,26.37
2023-05-12T15:36:39.224Z,26.29
2023-05-12T15:39:07.406Z,26.42
2023-05-12T15:41:35.772Z,26.74
2023-05-12T15:44:03.944Z,27.13
2023-05-12T15:46:32.360Z,27.75
2023-05-12T15:49:00.705Z,28.37
2023-05-12T15:51:30.105Z,28.28
2023-05-12T15:53:58.381Z,28.57
2023-05-12T15:56:26.878Z,28.85
2023-05-12T15:58:56.969Z,29.69
2023-05-12T16:01:25.363Z,29.63
2023-05-12T16:03:54.409Z,29.88
2023-05-12T16:06:22.719Z,30.21
2023-05-12T16:08:51.092Z,30.32
2023-05-12T16:11:19.476Z,30.45
2023-05-12T16:13:47.650Z,30.61
2023-05-12T16:16:16.044Z,31.00
2023-05-12T16:18:44.317Z,31.13
2023-05-12T16:21:12.973Z,32.06
2023-05-12T16:23:41.149Z,32.20
2023-05-12T16:26:09.733Z,31.38
2023-05-12T16:28:38.012Z,31.16
2023-05-12T16:31:06.177Z,31.35
2023-05-12T16:33:34.456Z,31.29
2023-05-12T16:36:02.829Z,30.76
2023-05-12T16:38:32.577Z,30.70
2023-05-12T16:41:00.911Z,30.34
2023-05-12T16:43:29.105Z,30.25
2023-05-12T16:46:01.926Z,30.58
2023-05-12T16:48:34.502Z,30.48
2023-05-12T16:51:05.709Z,30.77
2023-05-12T16:53:34.200Z,31.26
2023-05-12T16:56:02.751Z,31.25
2023-05-12T16:58:34.297Z,31.78
2023-05-12T17:01:02.830Z,31.50
2023-05-12T17:03:31.859Z,31.74
2023-05-12T17:06:00.556Z,32.33
2023-05-12T17:08:28.829Z,32.41
2023-05-12T17:10:57.002Z,32.94
2023-05-12T17:13:25.175Z,33.01
2023-05-12T17:15:53.482Z,33.08
2023-05-12T17:18:21.785Z,33.14
2023-05-12T17:20:50.101Z,33.73
2023-05-12T17:23:18.246Z,34.25
2023-05-12T17:25:46.550Z,34.41
2023-05-12T17:28:14.719Z,34.47
2023-05-12T17:30:43.311Z,34.59
2023-05-12T17:33:11.551Z,35.37
2023-05-12T17:35:39.964Z,35.98
2023-05-12T17:38:08.191Z,35.54
2023-05-12T17:40:36.510Z,35.69
2023-05-12T17:43:04.984Z,35.87
2023-05-12T17:45:33.566Z,36.12
2023-05-12T17:48:02.014Z,37.14
2023-05-12T17:50:30.321Z,37.28
2023-05-12T17:52:58.596Z,36.97
2023-05-12T17:55:26.983Z,36.88
2023-05-12T17:57:55.145Z,36.93
2023-05-12T18:00:23.328Z,37.06
2023-05-12T18:02:51.725Z,37.21
2023-05-12T18:05:20.437Z,37.51
2023-05-12T18:07:48.858Z,37.66
2023-05-12T18:10:17.441Z,38.13
2023-05-12T18:12:45.613Z,38.03
2023-05-12T18:15:13.786Z,38.33
2023-05-12T18:17:42.046Z,38.34
2023-05-12T18:20:10.855Z,38.32
2023-05-12T18:22:39.211Z,38.45
2023-05-12T18:25:10.366Z,38.64
2023-05-12T18:27:38.946Z,38.84
2023-05-12T18:30:08.369Z,39.05
2023-05-12T18:32:36.640Z,39.21
2023-05-12T18:35:06.728Z,39.30
2023-05-12T18:37:35.221Z,40.37
2023-05-12T18:40:05.155Z,39.81
2023-05-12T18:42:33.305Z,39.49
2023-05-12T18:45:01.579Z,40.23
2023-05-12T18:47:29.756Z,40.10
2023-05-12T18:49:57.921Z,40.27
2023-05-12T18:52:26.109Z,40.31
2023-05-12T18:54:54.275Z,40.78
2023-05-12T18:57:22.683Z,41.43
2023-05-12T18:59:51.332Z,42.04
2023-05-12T19:02:19.507Z,41.40
2023-05-12T19:04:48.667Z,42.24
2023-05-12T19:07:17.277Z,43.10
2023-05-12T19:09:45.771Z,43.08
2023-05-12T19:12:13.947Z,43.07
2023-05-12T19:14:43.340Z,43.25
2023-05-12T19:17:11.817Z,43.15
2023-05-12T19:19:40.296Z,43.22
2023-05-12T19:22:08.462Z,43.25
2023-05-12T19:24:38.171Z,42.96
2023-05-12T19:27:06.458Z,42.87
2023-05-12T19:29:34.624Z,42.69
2023-05-12T19:32:03.334Z,42.93
2023-05-12T19:34:31.788Z,43.26
2023-05-12T19:37:03.026Z,42.97
2023-05-12T19:39:31.306Z,42.90
2023-05-12T19:41:59.473Z,42.91
2023-05-12T19:44:29.915Z,42.99
2023-05-12T19:47:04.783Z,43.11
2023-05-12T19:49:37.321Z,42.59
2023-05-12T19:52:06.295Z,42.69
2023-05-12T19:54:34.471Z,42.76
2023-05-12T19:57:02.642Z,42.67
2023-05-12T19:59:30.918Z,42.80
2023-05-12T20:01:59.136Z,42.89
2023-05-12T20:04:28.285Z,43.07
2023-05-12T20:06:57.496Z,43.08
2023-05-12T20:09:26.204Z,43.45
2023-05-12T20:11:54.540Z,43.42
2023-05-12T20:14:23.154Z,43.31
2023-05-12T20:16:51.307Z,43.89
2023-05-12T20:19:19.471Z,43.74
2023-05-12T20:21:47.746Z,43.41
2023-05-12T20:24:15.918Z,43.72
2023-05-12T20:26:44.088Z,43.69
2023-05-12T20:29:12.465Z,43.78
2023-05-12T20:31:40.675Z,44.02
2023-05-12T20:34:08.911Z,44.03
2023-05-12T20:36:37.082Z,43.99
2023-05-12T20:39:05.357Z,44.28
2023-05-12T20:41:33.734Z,44.63
2023-05-12T20:44:02.030Z,44.54
2023-05-12T20:46:31.177Z,45.25
2023-05-12T20:48:59.594Z,45.49
2023-05-12T20:51:27.957Z,45.71
2023-05-12T20:53:56.340Z,46.37
2023-05-12T20:56:24.623Z,46.66
2023-05-12T20:58:52.997Z,46.36
2023-05-12T21:01:21.257Z,46.92
2023-05-12T21:03:49.888Z,47.07
2023-05-12T21:06:18.539Z,47.25
2023-05-12T21:08:47.016Z,47.67
2023-05-12T21:11:18.864Z,47.68
2023-05-12T21:13:48.438Z,47.68
2023-05-12T21:16:16.931Z,48.24
2023-05-12T21:18:45.583Z,48.66
2023-05-12T21:21:13.911Z,48.26
2023-05-12T21:23:42.183Z,48.33
2023-05-12T21:26:10.643Z,48.19
2023-05-12T21:28:39.148Z,48.25
2023-05-12T21:31:07.823Z,48.13
2023-05-12T21:33:36.000Z,48.86
2023-05-12T21:36:04.688Z,49.15
2023-05-12T21:38:33.178Z,49.56
2023-05-12T21:41:01.544Z,49.99
2023-05-12T21:43:29.712Z,49.85
2023-05-12T21:46:02.508Z,50.66
2023-05-12T21:48:32.194Z,51.39
2023-05-12T21:51:01.616Z,51.36
2023-05-12T21:53:30.183Z,51.14
2023-05-12T21:55:58.359Z,51.60
2023-05-12T21:58:26.667Z,51.74
2023-05-12T22:00:54.914Z,52.03
2023-05-12T22:03:25.306Z,52.90
2023-05-12T22:05:53.611Z,53.18
2023-05-12T22:08:21.986Z,53.19
2023-05-12T22:10:50.157Z,53.21
2023-05-12T22:13:19.281Z,53.85
2023-05-12T22:15:47.552Z,54.47
2023-05-12T22:18:15.732Z,54.52
2023-05-12T22:20:43.869Z,54.89
2023-05-12T22:23:12.155Z,55.14
2023-05-12T22:25:40.432Z,56.05
2023-05-12T22:28:08.599Z,56.24
2023-05-12T22:30:36.767Z,56.84
2023-05-12T22:33:05.020Z,57.18
2023-05-12T22:35:33.439Z,57.31
2023-05-12T22:38:02.001Z,57.48
2023-05-12T22:40:30.891Z,57.64
2023-05-12T22:42:59.377Z,57.65
2023-05-12T22:45:27.640Z,56.97
2023-05-12T22:47:55.922Z,57.32
2023-05-12T22:50:24.344Z,56.78
2023-05-12T22:52:57.308Z,57.52
2023-05-12T22:55:27.465Z,57.85
2023-05-12T22:57:55.674Z,57.53
2023-05-12T23:00:24.049Z,57.51
2023-05-12T23:02:52.246Z,57.72
2023-05-12T23:05:21.213Z,58.20
2023-05-12T23:07:49.381Z,57.72
2023-05-12T23:10:17.760Z,57.14
2023-05-12T23:12:46.042Z,57.21
2023-05-12T23:15:14.427Z,57.54
2023-05-12T23:17:42.743Z,56.70
2023-05-12T23:20:11.578Z,56.97
2023-05-12T23:22:39.760Z,57.42
2023-05-12T23:25:08.739Z,57.26
2023-05-12T23:27:37.634Z,56.76
2023-05-12T23:30:07.441Z,57.28
2023-05-12T23:32:35.865Z,56.93
2023-05-12T23:35:04.610Z,57.04
2023-05-12T23:37:32.776Z,57.30
2023-05-12T23:40:00.953Z,58.03
2023-05-12T23:42:29.125Z,58.37
2023-05-12T23:44:57.497Z,58.72
2023-05-12T23:47:25.929Z,58.85
2023-05-12T23:49:54.146Z,58.68
2023-05-12T23:52:22.218Z,58.96
2023-05-12T23:54:50.291Z,58.76
2023-05-12T23:57:18.767Z,59.07
2023-05-12T23:59:46.940Z,59.57
